METAR Data
IDs: Format: Raw Decoded Include TAF

Data at: 2056 UTC 08 Aug 2020

KRYN 082045Z 24003KT 10SM CLR 39/06 A2996
KRYN 081945Z 33006KT 10SM CLR 37/06 A2998
KRYN 081845Z 33006KT 10SM CLR 37/08 A3000
KRYN 081745Z 36004KT 10SM CLR 36/08 A3002
KRYN 081645Z 00000KT 10SM CLR 34/08 A3003
KRYN 081545Z 00000KT 10SM CLR 31/09 A3004
KRYN 081445Z 00000KT 10SM CLR 30/10 A3004
KRYN 081245Z 17003KT 10SM CLR 26/11 A3002
KRYN 080245Z 22008G28KT 10SM CLR 36/07 A2995 RMK LAST
KRYN 080145Z 00000KT 10SM CLR 38/02 A2990
KRYN 080045Z 32004KT 10SM CLR 38/02 A2990
KRYN 072349Z 32006KT 10SM CLR 38/02 A2990
KRYN 072249Z 33005KT 10SM CLR 37/03 A2991
KRYN 072149Z 31004KT 10SM CLR 39/03 A2992
KRYN 072046Z 13006KT 10SM CLR 38/03 A2995
KRYN 071946Z 02007KT 10SM CLR 38/05 A2997
KRYN 071851Z 04005KT 10SM CLR 36/05 A2998
KRYN 071756Z 00000KT 10SM CLR 37/05 A2999
KRYN 071645Z 00000KT 10SM CLR 34/08 A3000
KRYN 071455Z 08007KT 10SM CLR 29/09 A2999
KRYN 071345Z 11003KT 10SM CLR 26/09 A2998
KRYN 071255Z 06006KT 10SM CLR 25/09 A2996